Time;durP1;ratioP1;P1;durP2;ratioP2;P2;SDS_P1;SDS_P2;PMS_P1;PMS_P2;Temp;Humidity;BMP_temperature;BMP_pressure;BME280_temperature;BME280_humidity;BME280_pressure;Samples;Min_cycle;Max_cycle;Signal;HPM_P1;HPM_P2
2023/03/16 00:00:16;;;;;;;8.02;2.87;;;;;;;3.66;60.74;98036.28;5212889;27;20066;-81
2023/03/16 00:02:43;;;;;;;13.90;3.40;;;;;;;3.53;61.92;98045.00;5212303;27;20108;-82
2023/03/16 00:05:11;;;;;;;10.23;3.75;;;;;;;4.01;60.01;98040.81;5187830;27;20079;-81
2023/03/16 00:07:40;;;;;;;10.27;3.33;;;;;;;3.94;60.68;98034.16;5191588;27;20338;-81
2023/03/16 00:10:11;;;;;;;9.23;3.40;;;;;;;3.37;62.91;98040.09;5191053;27;20465;-81
2023/03/16 00:12:38;;;;;;;11.12;3.12;;;;;;;3.27;62.93;98037.69;5191581;27;20089;-81
2023/03/16 00:15:06;;;;;;;9.93;3.47;;;;;;;3.26;63.97;98041.13;5191852;27;20072;-81
2023/03/16 00:17:33;;;;;;;9.65;2.95;;;;;;;3.55;63.05;98033.06;5191954;27;20125;-81
2023/03/16 00:20:05;;;;;;;9.85;3.25;;;;;;;3.24;64.57;98035.19;5192690;27;20066;-81
2023/03/16 00:22:32;;;;;;;11.25;2.87;;;;;;;3.28;64.26;98034.28;5180447;27;20081;-81
2023/03/16 00:25:00;;;;;;;12.60;2.92;;;;;;;3.15;65.09;98033.59;5196920;27;20063;-81
2023/03/16 00:27:27;;;;;;;7.72;3.42;;;;;;;3.30;65.10;98032.56;5213595;27;20129;-81
2023/03/16 00:29:54;;;;;;;10.18;3.25;;;;;;;3.13;66.17;98037.88;5213732;27;20105;-81
2023/03/16 00:32:27;;;;;;;9.63;3.05;;;;;;;3.20;66.28;98019.09;5213200;27;20068;-81
2023/03/16 00:34:54;;;;;;;11.90;3.05;;;;;;;3.46;65.16;98039.97;5213695;27;20097;-81
2023/03/16 00:37:22;;;;;;;9.73;2.80;;;;;;;3.70;64.35;98038.75;5213317;27;20425;-81
2023/03/16 00:39:50;;;;;;;7.72;2.55;;;;;;;3.74;64.13;98035.31;5213819;27;20051;-81
2023/03/16 00:42:18;;;;;;;11.68;3.15;;;;;;;3.17;66.65;98044.63;5213868;27;20046;-81
2023/03/16 00:44:45;;;;;;;8.20;2.80;;;;;;;3.24;67.35;98055.59;5213168;27;20063;-81
2023/03/16 00:47:15;;;;;;;10.07;3.28;;;;;;;3.22;68.09;98052.22;5213581;27;20093;-81
2023/03/16 00:49:43;;;;;;;9.02;2.72;;;;;;;3.22;68.19;98045.41;5195369;27;20055;-81
2023/03/16 00:52:14;;;;;;;11.05;2.90;;;;;;;3.35;67.76;98048.63;5211843;27;20118;-81
2023/03/16 00:54:43;;;;;;;8.32;2.72;;;;;;;3.39;67.90;98056.22;5213717;27;20097;-81
2023/03/16 00:57:11;;;;;;;10.25;3.30;;;;;;;3.15;69.27;98047.19;5213756;27;20398;-81
2023/03/16 00:59:39;;;;;;;8.50;2.90;;;;;;;3.30;68.77;98056.38;5213212;27;20439;-81
2023/03/16 01:02:07;;;;;;;11.52;3.10;;;;;;;3.16;69.57;98058.25;5213599;27;20042;-81
2023/03/16 01:04:34;;;;;;;8.52;2.65;;;;;;;3.38;69.15;98069.84;5213476;27;20070;-81
2023/03/16 01:07:03;;;;;;;9.02;2.60;;;;;;;3.40;68.96;98067.25;5211714;27;20120;-81
2023/03/16 01:09:35;;;;;;;9.65;2.78;;;;;;;3.14;70.25;98068.47;5213348;27;20068;-81
2023/03/16 01:12:10;;;;;;;8.68;2.65;;;;;;;3.09;70.87;98061.75;5213700;27;20046;-81
2023/03/16 01:14:45;;;;;;;11.00;3.00;;;;;;;3.03;71.29;98061.81;5211933;27;20337;-81
2023/03/16 01:17:13;;;;;;;8.82;2.87;;;;;;;3.08;71.15;98063.44;5194772;27;20062;-81
2023/03/16 01:19:40;;;;;;;6.85;2.72;;;;;;;3.07;71.72;98071.09;5213169;27;20394;-81
2023/03/16 01:22:08;;;;;;;6.97;2.70;;;;;;;3.20;70.88;98067.56;5213549;27;20084;-81
2023/03/16 01:24:36;;;;;;;12.10;2.60;;;;;;;3.20;70.91;98070.09;5194165;27;20063;-81
2023/03/16 01:27:04;;;;;;;7.10;2.67;;;;;;;3.37;70.37;98074.97;5212612;27;20051;-81
2023/03/16 01:29:31;;;;;;;9.20;3.03;;;;;;;3.35;71.01;98069.88;5213326;27;20054;-81
2023/03/16 01:31:59;;;;;;;9.30;2.80;;;;;;;3.03;72.74;98064.37;5214003;27;20077;-81
2023/03/16 01:34:26;;;;;;;6.55;2.30;;;;;;;2.91;73.98;98065.34;5213088;27;20062;-81
2023/03/16 01:36:53;;;;;;;7.22;2.62;;;;;;;2.98;74.60;98059.34;5213666;27;20089;-81
2023/03/16 01:39:20;;;;;;;6.10;2.35;;;;;;;3.00;74.72;98064.41;5213113;27;20748;-81
2023/03/16 01:41:47;;;;;;;9.82;2.90;;;;;;;2.70;77.20;98066.44;5213176;27;20100;-81
2023/03/16 01:44:17;;;;;;;11.75;3.45;;;;;;;2.62;77.94;98073.31;5213418;27;20361;-81
2023/03/16 01:46:44;;;;;;;7.43;2.78;;;;;;;2.87;77.76;98066.25;5213278;27;20332;-81
2023/03/16 01:49:15;;;;;;;7.95;2.67;;;;;;;2.78;77.70;98066.38;5212785;27;20114;-81
2023/03/16 01:51:59;;;;;;;9.73;3.05;;;;;;;2.48;79.84;98070.94;5194721;27;20380;-81
2023/03/16 01:54:36;;;;;;;7.22;3.25;;;;;;;2.08;83.32;98060.28;5213280;27;20063;-81
2023/03/16 01:57:08;;;;;;;6.93;2.87;;;;;;;2.03;84.47;98085.78;5194683;27;20441;-81
2023/03/16 01:59:39;;;;;;;9.25;3.55;;;;;;;2.48;83.14;98086.22;5194530;27;20059;-81
2023/03/16 02:02:07;;;;;;;10.18;3.37;;;;;;;2.24;84.68;98094.09;5194347;27;20051;-81
2023/03/16 02:07:47;;;;;;;6.32;2.33;;;;;;;2.07;86.49;98101.00;5235416;27;20063;-81
2023/03/16 02:10:16;;;;;;;9.32;3.72;;;;;;;1.85;88.11;98118.13;5234344;27;20053;-81
2023/03/16 02:12:43;;;;;;;9.07;3.50;;;;;;;2.09;87.64;98123.03;5234673;27;20104;-81
2023/03/16 02:15:12;;;;;;;12.75;4.40;;;;;;;1.89;89.74;98124.88;5229245;27;20062;-81
2023/03/16 02:17:41;;;;;;;9.20;4.03;;;;;;;1.99;89.21;98119.72;5212980;27;20058;-81
2023/03/16 02:20:41;;;;;;;10.13;4.47;;;;;;;2.11;89.04;98133.22;5194537;27;20114;-81
2023/03/16 02:23:17;;;;;;;10.18;4.30;;;;;;;1.89;90.32;98127.44;5213025;27;20099;-81
2023/03/16 02:26:00;;;;;;;10.35;4.72;;;;;;;1.68;92.54;98120.78;5212867;27;20070;-81
2023/03/16 02:28:34;;;;;;;11.07;5.00;;;;;;;1.69;92.83;98127.56;5211728;27;20087;-81
2023/03/16 02:31:03;;;;;;;12.68;5.05;;;;;;;1.71;93.19;98141.97;5194247;27;20066;-81
2023/03/16 02:33:31;;;;;;;10.05;4.70;;;;;;;2.07;91.26;98151.91;5194460;27;20066;-81
2023/03/16 02:35:58;;;;;;;14.02;5.70;;;;;;;1.74;93.74;98143.66;5194061;27;20070;-81
2023/03/16 02:38:25;;;;;;;12.65;5.78;;;;;;;2.13;91.32;98162.91;5212646;27;20131;-81
2023/03/16 02:41:08;;;;;;;14.63;6.40;;;;;;;1.55;95.40;98160.72;5213323;27;20047;-81
2023/03/16 02:43:37;;;;;;;15.38;6.20;;;;;;;1.86;93.74;98163.94;5194045;27;20107;-81
2023/03/16 02:46:04;;;;;;;17.75;7.15;;;;;;;1.64;95.67;98157.28;5188228;27;20418;-81
2023/03/16 02:48:43;;;;;;;15.13;7.60;;;;;;;1.59;95.78;98167.47;5190539;27;20215;-81
2023/03/16 02:51:10;;;;;;;14.45;7.18;;;;;;;1.45;98.01;98171.78;5207981;27;20079;-81
2023/03/16 02:53:37;;;;;;;16.95;7.28;;;;;;;1.63;96.93;98174.25;5192170;27;20105;-81
2023/03/16 02:56:04;;;;;;;16.92;8.13;;;;;;;1.62;97.10;98176.78;5191683;27;20063;-81
2023/03/16 02:58:31;;;;;;;19.23;10.07;;;;;;;1.43;98.05;98181.09;5191710;27;20193;-81
2023/03/16 03:00:58;;;;;;;20.35;7.62;;;;;;;1.28;99.43;98186.28;5192134;27;20116;-81
2023/03/16 03:03:25;;;;;;;15.88;8.02;;;;;;;1.26;100.00;98190.50;5192030;27;20101;-81
2023/03/16 03:05:52;;;;;;;22.13;9.15;;;;;;;1.63;98.06;98181.03;5191486;27;20054;-81
2023/03/16 03:08:22;;;;;;;;;;;;;;;1.54;98.72;98186.16;5192064;27;20404;-80
2023/03/16 03:10:49;;;;;;;19.45;8.02;;;;;;;1.81;96.92;98185.16;5192089;27;20469;-81
2023/03/16 03:13:15;;;;;;;;;;;;;;;1.42;99.13;98190.44;5192009;27;20046;-81
2023/03/16 03:15:42;;;;;;;18.60;8.85;;;;;;;1.38;98.76;98188.78;5196603;27;20030;-81
2023/03/16 03:18:10;;;;;;;18.92;8.35;;;;;;;1.54;98.53;98187.00;5212766;27;20070;-81
2023/03/16 03:20:36;;;;;;;22.10;9.27;;;;;;;1.57;98.49;98186.97;5212645;27;20054;-81
2023/03/16 03:23:04;;;;;;;;;;;;;;;1.63;98.00;98194.59;5213370;27;20120;-81
2023/03/16 03:25:33;;;;;;;20.35;9.07;;;;;;;1.52;98.26;98191.25;5212564;27;20007;-81
2023/03/16 03:28:04;;;;;;;20.30;9.00;;;;;;;1.82;96.52;98187.72;5212596;27;20054;-81
2023/03/16 03:30:31;;;;;;;20.37;9.02;;;;;;;1.34;98.23;98196.41;5194611;27;20050;-80
2023/03/16 03:32:58;;;;;;;21.12;9.20;;;;;;;1.54;96.50;98196.31;5212421;27;20054;-81
2023/03/16 03:35:25;;;;;;;18.80;9.48;;;;;;;1.42;97.38;98194.69;5212814;27;20330;-81
2023/03/16 03:37:52;;;;;;;19.87;8.70;;;;;;;1.59;97.47;98192.88;5212711;27;20086;-81
2023/03/16 03:40:20;;;;;;;19.52;9.10;;;;;;;1.28;98.47;98198.97;5212519;27;20069;-81
2023/03/16 03:42:48;;;;;;;22.55;8.90;;;;;;;1.59;97.39;98197.13;5212879;27;20046;-81
2023/03/16 03:45:15;;;;;;;19.42;7.97;;;;;;;1.65;95.33;98202.19;5212728;27;20108;-80
2023/03/16 03:47:42;;;;;;;19.27;8.70;;;;;;;1.53;95.34;98197.19;5212326;27;20059;-81
2023/03/16 03:50:11;;;;;;;20.30;9.35;;;;;;;1.55;95.86;98203.94;5213375;27;20148;-81
2023/03/16 03:52:38;;;;;;;21.58;9.00;;;;;;;1.42;96.97;98215.00;5214095;27;20360;-81
2023/03/16 03:55:05;;;;;;;22.83;9.68;;;;;;;1.55;96.33;98220.91;5212961;27;20115;-81
2023/03/16 03:57:32;;;;;;;22.75;9.32;;;;;;;1.71;95.50;98220.84;5213687;27;20481;-81
2023/03/16 03:59:59;;;;;;;;;;;;;;;1.57;96.69;98232.75;5214212;27;20061;-80
2023/03/16 04:02:26;;;;;;;22.02;9.57;;;;;;;1.59;96.44;98231.03;5213497;27;19954;-81
2023/03/16 04:04:53;;;;;;;21.45;8.80;;;;;;;1.32;98.00;98229.44;5213729;27;20129;-80
2023/03/16 04:07:20;;;;;;;22.23;10.18;;;;;;;1.25;99.71;98235.41;5213311;27;20195;-80
2023/03/16 04:09:47;;;;;;;26.83;11.55;;;;;;;0.98;100.00;98233.78;5213396;27;20059;-81
2023/03/16 04:12:14;;;;;;;;;;;;;;;1.13;100.00;98243.06;5213977;27;20450;-81
2023/03/16 04:14:40;;;;;;;25.45;10.00;;;;;;;1.37;98.88;98242.97;5213841;27;19966;-80
2023/03/16 04:17:07;;;;;;;;;;;;;;;1.40;99.02;98253.16;5213257;27;20124;-80
2023/03/16 04:19:34;;;;;;;23.55;9.85;;;;;;;1.56;98.12;98255.66;5213457;27;19969;-81
2023/03/16 04:22:01;;;;;;;23.23;9.60;;;;;;;1.69;96.76;98254.72;5213454;27;20046;-81
2023/03/16 04:24:28;;;;;;;;;;;;;;;1.56;96.71;98258.19;5214098;27;20067;-81
2023/03/16 04:26:55;;;;;;;23.80;10.65;;;;;;;1.81;95.75;98262.34;5213171;27;19969;-81
2023/03/16 04:29:24;;;;;;;;;;;;;;;1.70;95.36;98262.38;5213362;27;20051;-81
2023/03/16 04:31:52;;;;;;;25.23;10.25;;;;;;;1.69;95.06;98262.38;5213814;27;20007;-80
2023/03/16 04:34:23;;;;;;;24.85;10.75;;;;;;;1.29;98.36;98259.97;5213637;27;20090;-81
2023/03/16 04:37:10;;;;;;;23.73;10.65;;;;;;;1.38;97.71;98266.72;5211805;27;20066;-81
2023/03/16 04:45:49;;;;;;;23.55;10.90;;;;;;;1.58;97.35;98279.37;5213586;27;20078;-81
2023/03/16 04:48:17;;;;;;;25.25;11.48;;;;;;;1.61;95.72;98284.47;5213557;27;20084;-80
2023/03/16 04:50:44;;;;;;;25.33;11.23;;;;;;;2.09;93.88;98287.63;5194394;27;20108;-81
2023/03/16 04:53:12;;;;;;;22.50;10.63;;;;;;;1.84;94.02;98294.56;5213489;27;20118;-81
2023/03/16 04:55:40;;;;;;;27.25;11.50;;;;;;;2.07;92.59;98300.38;5213522;27;20067;-81
2023/03/16 04:58:07;;;;;;;25.55;11.10;;;;;;;2.33;90.55;98290.03;5213096;27;20196;-81
2023/03/16 05:00:34;;;;;;;23.58;9.73;;;;;;;2.48;89.76;98297.59;5213272;27;20310;-81
2023/03/16 05:03:01;;;;;;;;;;;;;;;1.97;92.48;98306.34;5213794;27;20108;-80
2023/03/16 05:05:28;;;;;;;22.60;10.73;;;;;;;2.40;90.11;98303.59;5211928;27;19961;-81
2023/03/16 05:07:55;;;;;;;26.62;10.95;;;;;;;1.52;93.80;98309.91;5213395;27;20506;-80
2023/03/16 05:10:22;;;;;;;;;;;;;;;1.88;92.46;98311.47;5212401;27;20068;-81
2023/03/16 05:12:49;;;;;;;21.58;9.45;;;;;;;1.82;91.67;98317.47;5213278;27;19995;-81
2023/03/16 05:15:16;;;;;;;;;;;;;;;2.32;89.13;98319.75;5213883;27;20073;-81
2023/03/16 05:17:43;;;;;;;21.05;8.40;;;;;;;1.88;90.87;98325.06;5213372;27;19969;-81
2023/03/16 05:20:11;;;;;;;20.12;8.88;;;;;;;2.53;86.97;98316.22;5213183;27;20107;-81
2023/03/16 05:22:42;;;;;;;20.27;9.18;;;;;;;2.58;86.79;98314.50;5213646;27;20046;-81
2023/03/16 05:25:13;;;;;;;19.55;8.77;;;;;;;2.65;86.96;98314.44;5213165;27;20058;-81
2023/03/16 05:27:45;;;;;;;19.27;8.82;;;;;;;2.66;85.82;98332.31;5213085;27;20066;-81
2023/03/16 05:30:13;;;;;;;18.73;7.93;;;;;;;2.93;84.96;98318.50;5213506;27;20108;-81
2023/03/16 05:32:40;;;;;;;23.58;9.10;;;;;;;2.72;85.97;98331.41;5213204;27;20051;-82
2023/03/16 05:35:07;;;;;;;19.55;8.63;;;;;;;2.78;84.82;98331.37;5213439;27;20093;-81
2023/03/16 05:37:36;;;;;;;19.33;8.82;;;;;;;2.98;84.68;98333.75;5213316;27;20106;-81
2023/03/16 05:40:13;;;;;;;18.80;7.95;;;;;;;3.44;83.86;98344.41;5213129;27;20092;-81
2023/03/16 05:42:40;;;;;;;18.80;8.45;;;;;;;4.05;79.92;98349.72;5213564;27;20043;-81
2023/03/16 05:45:07;;;;;;;17.40;6.72;;;;;;;5.54;72.61;98348.34;5212185;27;20086;-81
2023/03/16 05:47:36;;;;;;;16.62;7.87;;;;;;;4.81;72.57;98354.66;5212673;27;20424;-82
2023/03/16 05:50:04;;;;;;;19.20;8.07;;;;;;;5.46;70.27;98347.63;5213449;27;20103;-81
2023/03/16 05:52:32;;;;;;;17.92;8.70;;;;;;;5.62;69.82;98349.03;5213475;27;20051;-81
2023/03/16 05:54:59;;;;;;;15.75;7.90;;;;;;;5.95;67.77;98356.97;5213158;27;20058;-81
2023/03/16 05:57:26;;;;;;;16.33;8.05;;;;;;;6.57;65.33;98352.28;5194417;27;20073;-81
2023/03/16 05:59:53;;;;;;;17.65;8.23;;;;;;;7.56;61.62;98362.78;5213455;27;20054;-81
2023/03/16 06:02:20;;;;;;;18.33;7.80;;;;;;;7.65;59.69;98372.78;5213129;27;20104;-81
2023/03/16 06:04:47;;;;;;;14.18;7.68;;;;;;;8.13;58.66;98374.94;5213383;27;20397;-81
2023/03/16 06:07:14;;;;;;;;;;;;;;;8.00;58.17;98377.03;5212358;27;20062;-82
2023/03/16 06:09:40;;;;;;;16.77;7.75;;;;;;;8.53;56.34;98374.69;5213557;27;19968;-81
2023/03/16 06:12:08;;;;;;;17.05;7.68;;;;;;;8.46;56.57;98377.50;5213257;27;20103;-81
2023/03/16 06:14:35;;;;;;;15.10;7.75;;;;;;;8.64;55.08;98379.53;5212942;27;20058;-82
2023/03/16 06:17:02;;;;;;;15.00;6.22;;;;;;;8.24;56.27;98383.22;5194524;27;20054;-81
2023/03/16 06:19:29;;;;;;;;;;;;;;;7.09;59.93;98385.31;5213520;27;20122;-81
2023/03/16 06:21:56;;;;;;;15.90;8.27;;;;;;;7.72;59.66;98381.19;5213263;27;20035;-82
2023/03/16 06:24:23;;;;;;;15.25;7.70;;;;;;;9.71;53.06;98386.44;5213352;27;20077;-82
2023/03/16 06:26:49;;;;;;;18.55;8.25;;;;;;;10.33;50.15;98394.56;5213152;27;20070;-82
2023/03/16 06:29:16;;;;;;;16.73;8.35;;;;;;;9.81;50.16;98390.38;5212644;27;20058;-84
2023/03/16 06:31:43;;;;;;;15.02;7.70;;;;;;;8.65;53.90;98404.34;5213650;27;20046;-83
2023/03/16 06:34:10;;;;;;;16.35;7.00;;;;;;;9.24;52.21;98402.53;5213245;27;20059;-83
2023/03/16 06:36:38;;;;;;;18.00;8.32;;;;;;;8.73;53.49;98404.16;5212866;27;20059;-84
2023/03/16 06:39:05;;;;;;;16.27;7.72;;;;;;;7.97;57.21;98410.47;5213086;27;20120;-85
2023/03/16 06:41:34;;;;;;;15.18;7.70;;;;;;;9.78;50.99;98406.78;5213296;27;20050;-85
2023/03/16 06:44:01;;;;;;;17.58;8.05;;;;;;;10.47;48.64;98417.28;5212893;27;20082;-83
2023/03/16 06:46:28;;;;;;;16.77;7.97;;;;;;;11.30;45.81;98404.66;5213052;27;20572;-83
2023/03/16 06:48:55;;;;;;;;;;;;;;;10.56;46.50;98408.37;5213709;27;20055;-85
2023/03/16 06:51:22;;;;;;;18.40;7.55;;;;;;;10.07;47.43;98404.94;5214115;27;20007;-84
2023/03/16 06:53:48;;;;;;;;;;;;;;;10.61;47.74;98417.59;5213499;27;20061;-84
2023/03/16 06:56:15;;;;;;;15.30;7.25;;;;;;;11.33;45.23;98416.59;5212817;27;20039;-84
2023/03/16 06:58:42;;;;;;;15.55;7.55;;;;;;;9.93;48.46;98425.19;5212926;27;20559;-84
2023/03/16 07:01:09;;;;;;;16.67;7.50;;;;;;;9.96;49.00;98425.06;5213147;27;20538;-85
2023/03/16 07:03:36;;;;;;;16.70;7.85;;;;;;;10.28;47.60;98430.00;5212725;27;20074;-84
2023/03/16 07:06:03;;;;;;;;;;;;;;;10.09;48.46;98439.22;5213059;27;20105;-84
2023/03/16 07:08:30;;;;;;;16.73;7.68;;;;;;;9.18;51.67;98440.50;5211723;27;19962;-83
2023/03/16 07:10:57;;;;;;;18.25;8.32;;;;;;;10.07;48.68;98441.03;5212626;27;20050;-84
2023/03/16 07:13:24;;;;;;;15.55;7.97;;;;;;;10.31;48.63;98441.94;5213014;27;20063;-83
2023/03/16 07:15:51;;;;;;;14.52;7.65;;;;;;;9.99;48.41;98448.16;5211528;27;20058;-83
2023/03/16 07:18:21;;;;;;;17.02;8.02;;;;;;;10.26;47.07;98442.09;5212174;27;20115;-83
2023/03/16 07:20:48;;;;;;;17.27;8.15;;;;;;;10.23;48.03;98444.78;5212983;27;20046;-83
2023/03/16 07:23:15;;;;;;;;;;;;;;;9.78;48.04;98444.56;5211834;27;20066;-83
2023/03/16 07:25:43;;;;;;;14.87;7.68;;;;;;;9.15;50.00;98453.47;5213373;27;19980;-83
2023/03/16 07:28:10;;;;;;;15.43;7.97;;;;;;;8.66;51.56;98466.03;5213362;27;20050;-82
2023/03/16 07:30:37;;;;;;;16.83;7.80;;;;;;;8.45;52.31;98473.53;5213068;27;20047;-82
2023/03/16 07:33:04;;;;;;;14.90;7.20;;;;;;;8.46;51.84;98472.62;5212945;27;20059;-81
2023/03/16 07:35:31;;;;;;;16.90;8.02;;;;;;;7.69;55.13;98461.75;5213726;27;20705;-81
2023/03/16 07:37:58;;;;;;;17.12;6.57;;;;;;;7.91;53.59;98468.91;5213532;27;20470;-84
2023/03/16 07:40:24;;;;;;;;;;;;;;;7.91;53.39;98474.91;5213727;27;20046;-81
2023/03/16 07:42:52;;;;;;;16.93;8.20;;;;;;;7.50;55.62;98473.34;5213803;27;19969;-82
2023/03/16 07:45:20;;;;;;;13.40;6.70;;;;;;;9.21;52.39;98482.44;5213226;27;20215;-85
2023/03/16 07:47:47;;;;;;;13.80;6.70;;;;;;;9.13;49.54;98491.28;5213149;27;20054;-85
2023/03/16 07:50:18;;;;;;;15.63;7.18;;;;;;;9.17;50.81;98474.88;5213721;27;20100;-84
2023/03/16 07:52:45;;;;;;;14.43;7.25;;;;;;;8.69;52.09;98488.25;5213889;27;20069;-84
2023/03/16 07:55:12;;;;;;;13.85;7.00;;;;;;;9.45;50.07;98486.00;5213641;27;20070;-84
2023/03/16 07:57:41;;;;;;;14.30;6.68;;;;;;;9.56;47.98;98491.66;5194692;27;20443;-84
2023/03/16 08:00:13;;;;;;;15.05;7.18;;;;;;;9.20;50.08;98497.94;5213291;27;20042;-84
2023/03/16 08:02:40;;;;;;;13.75;6.30;;;;;;;10.31;47.49;98498.66;5194922;27;20066;-83
2023/03/16 08:05:09;;;;;;;13.88;6.37;;;;;;;10.80;46.21;98508.09;5212278;27;20059;-84
2023/03/16 08:07:36;;;;;;;13.25;6.37;;;;;;;9.90;45.70;98502.62;5212894;27;20493;-83
2023/03/16 08:10:04;;;;;;;13.27;6.47;;;;;;;9.22;48.80;98504.72;5213444;27;20364;-83
2023/03/16 08:12:32;;;;;;;12.85;6.32;;;;;;;10.02;47.25;98504.81;5213565;27;20124;-84
2023/03/16 08:14:59;;;;;;;13.65;6.37;;;;;;;10.73;45.25;98507.47;5213283;27;20115;-84
2023/03/16 08:17:28;;;;;;;;;;;;;;;10.27;46.16;98510.00;5195155;27;20054;-83
2023/03/16 08:19:55;;;;;;;13.07;6.40;;;;;;;9.86;46.52;98509.59;5213714;27;20011;-84
2023/03/16 08:22:23;;;;;;;14.10;6.70;;;;;;;9.64;46.83;98506.87;5213358;27;20059;-82
2023/03/16 08:24:50;;;;;;;13.50;6.78;;;;;;;9.51;46.77;98503.84;5213496;27;20059;-83
2023/03/16 08:27:19;;;;;;;13.57;6.47;;;;;;;9.99;45.98;98508.28;5213864;27;20054;-79
2023/03/16 08:29:46;;;;;;;13.32;5.32;;;;;;;9.46;48.04;98510.00;5214247;27;20057;-79
2023/03/16 08:32:13;;;;;;;14.32;5.50;;;;;;;9.76;44.92;98506.47;5213839;27;20077;-83
2023/03/16 08:34:40;;;;;;;10.10;5.12;;;;;;;9.52;45.39;98507.25;5213160;27;20070;-82
2023/03/16 08:37:07;;;;;;;12.88;5.40;;;;;;;9.13;46.42;98492.13;5213323;27;20050;-81
2023/03/16 08:39:35;;;;;;;11.38;5.37;;;;;;;9.10;46.03;98496.53;5213104;27;20046;-82
2023/03/16 08:42:02;;;;;;;;;;;;;;;9.07;46.59;98500.03;5213471;27;20093;-81
2023/03/16 08:44:29;;;;;;;10.50;4.50;;;;;;;9.52;46.63;98502.09;5213494;27;19969;-81
2023/03/16 08:46:55;;;;;;;10.73;3.42;;;;;;;9.60;43.85;98497.56;5213412;27;20111;-78
2023/03/16 08:49:23;;;;;;;10.48;3.72;;;;;;;8.50;44.38;98494.78;5218607;27;20328;-81
2023/03/16 08:51:49;;;;;;;10.27;3.87;;;;;;;7.19;49.24;98479.16;5218290;27;20063;-81
2023/03/16 08:54:16;;;;;;;12.55;4.22;;;;;;;7.93;45.71;98485.97;5216692;27;20067;-82
2023/03/16 08:56:43;;;;;;;12.10;3.40;;;;;;;7.67;46.22;98496.91;5213822;27;20109;-80
2023/03/16 08:59:10;;;;;;;;;;;;;;;7.87;45.95;98491.28;5213469;27;20047;-81
2023/03/16 09:01:54;;;;;;;7.75;3.22;;;;;;;8.20;45.44;98501.59;5213630;27;19974;-81
2023/03/16 09:04:22;;;;;;;10.65;3.75;;;;;;;8.28;45.96;98497.06;5224875;27;20031;-80
2023/03/16 09:06:52;;;;;;;7.05;2.97;;;;;;;8.27;45.23;98500.53;5221303;27;20023;-80
2023/03/16 09:09:35;;;;;;;7.55;3.08;;;;;;;7.98;45.50;98498.72;5224039;27;20026;-81
2023/03/16 09:12:04;;;;;;;8.73;3.30;;;;;;;7.97;44.27;98503.00;5227741;27;20035;-81
2023/03/16 09:14:32;;;;;;;8.50;3.35;;;;;;;7.76;45.66;98504.38;5228638;27;20080;-81
2023/03/16 09:16:59;;;;;;;9.10;3.42;;;;;;;7.14;47.43;98501.53;5230316;27;20026;-82
2023/03/16 09:20:08;;;;;;;10.30;3.50;;;;;;;6.91;47.30;98494.34;5230110;27;20073;-81
2023/03/16 09:22:51;;;;;;;10.32;3.70;;;;;;;7.27;47.25;98506.41;5225405;27;20074;-82
2023/03/16 09:25:19;;;;;;;11.25;4.70;;;;;;;6.94;47.76;98512.22;5224169;27;20397;-82
2023/03/16 09:27:46;;;;;;;9.73;3.83;;;;;;;8.27;46.25;98518.53;5224537;27;20027;-82
2023/03/16 09:30:13;;;;;;;;;;;;;;;8.37;45.10;98523.41;5225786;27;20023;-82
2023/03/16 09:33:21;;;;;;;9.63;3.65;;;;;;;8.51;45.58;98511.94;5223793;27;19966;-84
2023/03/16 09:35:48;;;;;;;10.30;4.22;;;;;;;8.36;45.99;98521.72;5233256;27;20077;-83
2023/03/16 09:38:16;;;;;;;10.52;4.03;;;;;;;9.26;43.82;98524.34;5212730;27;20063;-79
2023/03/16 09:40:45;;;;;;;10.93;3.35;;;;;;;9.34;44.41;98531.84;5194505;27;20055;-80
2023/03/16 09:43:37;;;;;;;12.80;4.05;;;;;;;8.77;43.31;98536.94;5213178;27;20690;-78
2023/03/16 09:46:14;;;;;;;12.88;4.80;;;;;;;8.81;43.69;98529.06;5212638;27;20055;-79
2023/03/16 09:48:41;;;;;;;12.48;5.05;;;;;;;8.67;45.96;98531.19;5193908;27;20061;-78
2023/03/16 09:51:21;;;;;;;12.52;5.05;;;;;;;9.81;44.03;98535.53;5213433;27;20131;-79
2023/03/16 09:53:51;;;;;;;12.15;4.72;;;;;;;9.80;43.73;98533.00;5212982;27;20192;-79
2023/03/16 09:56:32;;;;;;;10.35;4.40;;;;;;;10.15;41.50;98524.13;5213290;27;20070;-79
2023/03/16 09:58:59;;;;;;;11.23;4.45;;;;;;;10.14;42.48;98533.59;5213402;27;20054;-81
2023/03/16 10:01:36;;;;;;;9.85;3.87;;;;;;;9.95;41.43;98537.66;5216468;27;20081;-81
2023/03/16 10:04:46;;;;;;;11.18;4.00;;;;;;;10.60;39.67;98541.53;5216127;27;20062;-82
2023/03/16 10:07:33;;;;;;;;;;;;;;;10.53;40.41;98548.66;5213436;27;20066;-82
2023/03/16 10:10:32;;;;;;;9.38;4.03;;;;;;;10.91;38.04;98533.53;5244711;27;19972;-82
2023/03/16 10:13:00;;;;;;;10.40;4.12;;;;;;;10.62;39.30;98538.00;5212988;27;20051;-83
2023/03/16 10:15:31;;;;;;;11.25;4.75;;;;;;;10.75;39.01;98542.75;5213446;27;20059;-83
2023/03/16 10:18:12;;;;;;;9.55;3.67;;;;;;;10.69;39.45;98536.03;5213000;27;20062;-82
2023/03/16 10:20:40;;;;;;;10.07;4.32;;;;;;;11.02;37.42;98528.81;5194021;27;20054;-82
2023/03/16 10:23:16;;;;;;;11.50;4.57;;;;;;;10.54;38.51;98521.13;5211860;27;20405;-82
2023/03/16 10:25:47;;;;;;;10.38;4.40;;;;;;;10.53;39.34;98534.91;5213070;27;20409;-82
2023/03/16 10:28:16;;;;;;;9.57;3.75;;;;;;;10.41;38.22;98531.84;5212722;27;20110;-82
2023/03/16 10:30:43;;;;;;;10.52;4.72;;;;;;;9.81;38.59;98532.13;5213247;27;20100;-82
2023/03/16 10:33:29;;;;;;;11.73;4.20;;;;;;;10.80;40.65;98548.56;5211739;27;20057;-82
2023/03/16 10:36:04;;;;;;;14.18;4.07;;;;;;;11.08;38.23;98546.69;5212766;27;20062;-83
2023/03/16 10:38:45;;;;;;;9.25;3.03;;;;;;;11.12;35.37;98527.59;5212801;27;20546;-82
2023/03/16 10:41:20;;;;;;;9.70;3.50;;;;;;;10.72;35.22;98539.34;5213465;27;20049;-82
2023/03/16 10:43:54;;;;;;;9.77;3.95;;;;;;;10.19;37.34;98543.75;5194213;27;20055;-82
2023/03/16 10:46:22;;;;;;;7.72;3.05;;;;;;;9.75;36.57;98537.44;5213021;27;20067;-82
2023/03/16 10:49:00;;;;;;;8.05;3.35;;;;;;;9.68;36.14;98538.56;5212438;27;20062;-82
2023/03/16 10:51:30;;;;;;;12.18;3.90;;;;;;;9.70;36.49;98535.03;5213064;27;20415;-83
2023/03/16 10:54:19;;;;;;;10.63;3.80;;;;;;;10.22;36.67;98535.13;5212995;27;20043;-83
2023/03/16 10:56:49;;;;;;;9.43;3.53;;;;;;;9.57;37.06;98532.00;5194032;27;20062;-84
2023/03/16 10:59:33;;;;;;;11.68;4.47;;;;;;;9.80;37.28;98535.59;5212817;27;20074;-85
2023/03/16 11:02:15;;;;;;;10.50;3.67;;;;;;;10.50;35.19;98541.00;5212611;27;20070;-85
2023/03/16 11:04:42;;;;;;;10.27;4.20;;;;;;;10.34;35.53;98530.37;5213013;27;20057;-85
2023/03/16 11:07:16;;;;;;;8.57;3.28;;;;;;;10.39;36.49;98533.62;5211189;27;20114;-85
2023/03/16 11:09:43;;;;;;;8.90;3.70;;;;;;;10.75;36.15;98530.69;5211070;27;20082;-85
2023/03/16 11:12:30;;;;;;;10.18;3.87;;;;;;;10.27;34.64;98535.78;5212925;27;20455;-84
2023/03/16 11:15:04;;;;;;;7.12;2.92;;;;;;;10.64;33.87;98532.81;5212992;27;20536;-84
2023/03/16 11:17:43;;;;;;;9.38;2.90;;;;;;;10.71;30.97;98536.81;5194969;27;20059;-83
2023/03/16 11:20:16;;;;;;;9.05;3.60;;;;;;;10.05;31.27;98525.31;5194189;27;20075;-82
2023/03/16 11:22:46;;;;;;;9.90;3.42;;;;;;;10.61;32.58;98533.72;5212675;27;20055;-84
2023/03/16 11:25:21;;;;;;;9.70;3.47;;;;;;;9.47;33.73;98530.59;5212747;27;20051;-84
2023/03/16 11:28:11;;;;;;;10.13;3.75;;;;;;;9.98;35.04;98531.56;5212573;27;20441;-85
2023/03/16 11:31:01;;;;;;;8.65;3.50;;;;;;;9.85;35.91;98531.13;5212412;27;20059;-82
2023/03/16 11:33:29;;;;;;;8.77;3.30;;;;;;;10.10;35.77;98526.88;5211774;27;20086;-84
2023/03/16 11:36:12;;;;;;;6.60;2.72;;;;;;;10.47;32.84;98522.22;5212977;27;20047;-87
2023/03/16 11:38:54;;;;;;;7.03;2.42;;;;;;;10.12;29.84;98525.06;5176115;27;20067;-83
2023/03/16 11:41:29;;;;;;;7.95;2.47;;;;;;;9.89;31.61;98516.38;5193985;27;20141;-83
2023/03/16 11:44:09;;;;;;;9.65;3.03;;;;;;;9.50;32.00;98516.78;5212494;27;20542;-80
2023/03/16 11:46:41;;;;;;;9.55;3.28;;;;;;;9.73;35.12;98521.19;5212824;27;20421;-80
2023/03/16 11:49:34;;;;;;;12.90;3.28;;;;;;;10.06;34.69;98527.84;5193832;27;20398;-80
2023/03/16 11:52:16;;;;;;;4.87;2.00;;;;;;;10.38;33.09;98525.94;5193571;27;20108;-79
2023/03/16 11:54:54;;;;;;;8.05;2.95;;;;;;;8.95;30.89;98516.69;5211497;27;20050;-78
2023/03/16 11:57:43;;;;;;;13.02;3.92;;;;;;;9.75;35.12;98514.25;5211316;27;20415;-79
2023/03/16 12:00:46;;;;;;;8.50;3.42;;;;;;;10.28;34.76;98514.25;5193743;27;20066;-79
2023/03/16 12:03:21;;;;;;;9.13;3.15;;;;;;;10.26;35.06;98506.56;5212613;27;20055;-79